Terminal Aerodrome Forecast
Issued by NWS

Current Version | Previous Version | Text Only | Print | Product List | Glossary Off
Versions: 1 2 3 4 5 6 7 8 9 10 11 12 13 14 15 16 17 18 19 20

000
FTUS41 KPBZ 011500 AAA
TAFMGW
TAF AMD
KMGW 011539Z 0116/0212 18008KT 5SM -RASN BKN020 OVC030
      TEMPO 0116/0118 3SM -RASN BR OVC015
     FM011800 20006KT 3SM -RA OVC015
     FM020300 26005KT 1SM -SN OVC010
     FM020700 28010KT 3SM -SN OVC010=

USA.gov is the U.S. government's official web portal to all federal, state and local government web resources and services.